sensor_id;sensor_type;location;lat;lon;timestamp;pressure;altitude;pressure_sealevel;temperature;humidity
45541;BME280;31265;49.680;8.608;2024-01-30T00:01:48;102001.06;;;0.57;100.00
45541;BME280;31265;49.680;8.608;2024-01-30T00:04:16;101997.88;;;0.49;100.00
45541;BME280;31265;49.680;8.608;2024-01-30T00:06:46;101999.53;;;0.47;100.00
45541;BME280;31265;49.680;8.608;2024-01-30T00:09:14;101999.69;;;0.43;100.00
45541;BME280;31265;49.680;8.608;2024-01-30T00:11:43;101998.16;;;0.42;100.00
45541;BME280;31265;49.680;8.608;2024-01-30T00:14:11;101998.75;;;0.37;100.00
45541;BME280;31265;49.680;8.608;2024-01-30T00:16:40;102003.13;;;0.34;100.00
45541;BME280;31265;49.680;8.608;2024-01-30T00:19:08;101999.34;;;0.32;100.00
45541;BME280;31265;49.680;8.608;2024-01-30T00:21:36;101997.50;;;0.29;100.00
45541;BME280;31265;49.680;8.608;2024-01-30T00:24:06;101995.69;;;0.26;100.00
45541;BME280;31265;49.680;8.608;2024-01-30T00:26:34;102000.06;;;0.23;100.00
45541;BME280;31265;49.680;8.608;2024-01-30T00:29:02;102012.19;;;0.22;100.00
45541;BME280;31265;49.680;8.608;2024-01-30T00:31:31;102008.38;;;0.19;100.00
45541;BME280;31265;49.680;8.608;2024-01-30T00:33:59;102005.38;;;0.17;100.00
45541;BME280;31265;49.680;8.608;2024-01-30T00:36:28;102004.59;;;0.17;100.00
45541;BME280;31265;49.680;8.608;2024-01-30T00:38:57;102005.81;;;0.16;100.00
45541;BME280;31265;49.680;8.608;2024-01-30T00:41:26;102002.75;;;0.14;100.00
45541;BME280;31265;49.680;8.608;2024-01-30T00:43:55;102000.34;;;0.16;100.00
45541;BME280;31265;49.680;8.608;2024-01-30T00:46:23;102010.69;;;0.21;100.00
45541;BME280;31265;49.680;8.608;2024-01-30T00:48:51;102005.84;;;0.25;100.00
45541;BME280;31265;49.680;8.608;2024-01-30T00:51:20;102002.06;;;0.23;100.00
45541;BME280;31265;49.680;8.608;2024-01-30T00:53:48;102007.03;;;0.24;100.00
45541;BME280;31265;49.680;8.608;2024-01-30T00:56:16;102000.50;;;0.21;100.00
45541;BME280;31265;49.680;8.608;2024-01-30T00:58:46;101997.94;;;0.18;100.00
45541;BME280;31265;49.680;8.608;2024-01-30T01:01:15;102007.78;;;0.15;100.00
45541;BME280;31265;49.680;8.608;2024-01-30T01:03:44;102004.72;;;0.13;100.00
45541;BME280;31265;49.680;8.608;2024-01-30T01:06:12;102000.47;;;0.12;100.00
45541;BME280;31265;49.680;8.608;2024-01-30T01:08:41;102005.16;;;0.12;100.00
45541;BME280;31265;49.680;8.608;2024-01-30T01:11:09;101998.31;;;0.07;100.00
45541;BME280;31265;49.680;8.608;2024-01-30T01:13:48;102005.44;;;0.05;100.00
45541;BME280;31265;49.680;8.608;2024-01-30T01:16:16;102001.25;;;0.13;100.00
45541;BME280;31265;49.680;8.608;2024-01-30T01:18:45;102003.34;;;0.09;100.00
45541;BME280;31265;49.680;8.608;2024-01-30T01:21:13;102005.00;;;0.06;100.00
45541;BME280;31265;49.680;8.608;2024-01-30T01:23:41;102003.50;;;0.05;100.00
45541;BME280;31265;49.680;8.608;2024-01-30T01:26:10;102003.50;;;0.05;100.00
45541;BME280;31265;49.680;8.608;2024-01-30T01:28:40;102006.38;;;0.11;100.00
45541;BME280;31265;49.680;8.608;2024-01-30T01:31:09;102005.16;;;0.12;100.00
45541;BME280;31265;49.680;8.608;2024-01-30T01:33:38;102004.84;;;0.01;100.00
45541;BME280;31265;49.680;8.608;2024-01-30T01:36:06;102005.41;;;-0.05;100.00
45541;BME280;31265;49.680;8.608;2024-01-30T01:38:35;102001.22;;;-0.18;100.00
45541;BME280;31265;49.680;8.608;2024-01-30T01:41:03;101998.66;;;-0.22;100.00
45541;BME280;31265;49.680;8.608;2024-01-30T01:43:32;101996.03;;;-0.26;100.00
45541;BME280;31265;49.680;8.608;2024-01-30T01:46:00;102004.22;;;-0.26;100.00
45541;BME280;31265;49.680;8.608;2024-01-30T01:48:30;102008.50;;;-0.25;100.00
45541;BME280;31265;49.680;8.608;2024-01-30T01:50:59;102005.28;;;-0.23;100.00
45541;BME280;31265;49.680;8.608;2024-01-30T01:53:28;102002.13;;;-0.22;100.00
45541;BME280;31265;49.680;8.608;2024-01-30T01:55:56;102005.28;;;-0.23;100.00
45541;BME280;31265;49.680;8.608;2024-01-30T01:58:27;101996.03;;;-0.26;100.00
45541;BME280;31265;49.680;8.608;2024-01-30T02:00:58;101998.13;;;-0.30;100.00
45541;BME280;31265;49.680;8.608;2024-01-30T02:03:27;101994.31;;;-0.32;100.00
45541;BME280;31265;49.680;8.608;2024-01-30T02:05:57;101992.50;;;-0.35;100.00
45541;BME280;31265;49.680;8.608;2024-01-30T02:08:26;101995.78;;;-0.40;100.00
45541;BME280;31265;49.680;8.608;2024-01-30T02:10:54;101995.03;;;-0.41;100.00
45541;BME280;31265;49.680;8.608;2024-01-30T02:13:23;101995.03;;;-0.41;100.00
45541;BME280;31265;49.680;8.608;2024-01-30T02:15:51;101996.25;;;-0.42;100.00
45541;BME280;31265;49.680;8.608;2024-01-30T02:18:20;101995.94;;;-0.44;100.00
45541;BME280;31265;49.680;8.608;2024-01-30T02:20:49;101997.59;;;-0.47;100.00
45541;BME280;31265;49.680;8.608;2024-01-30T02:23:21;102000.00;;;-0.49;100.00
45541;BME280;31265;49.680;8.608;2024-01-30T02:25:51;101994.53;;;-0.49;100.00
45541;BME280;31265;49.680;8.608;2024-01-30T02:28:20;101991.47;;;-0.51;100.00
45541;BME280;31265;49.680;8.608;2024-01-30T02:30:48;101993.00;;;-0.50;100.00
45541;BME280;31265;49.680;8.608;2024-01-30T02:33:16;102001.19;;;-0.50;100.00
45541;BME280;31265;49.680;8.608;2024-01-30T02:35:45;101992.69;;;-0.52;100.00
45541;BME280;31265;49.680;8.608;2024-01-30T02:38:13;101996.28;;;-0.55;100.00
45541;BME280;31265;49.680;8.608;2024-01-30T02:40:43;102000.25;;;-0.56;100.00
45541;BME280;31265;49.680;8.608;2024-01-30T02:43:12;102004.03;;;-0.53;100.00
45541;BME280;31265;49.680;8.608;2024-01-30T02:45:40;101999.34;;;-0.53;100.00
45541;BME280;31265;49.680;8.608;2024-01-30T02:48:08;102003.72;;;-0.55;100.00
45541;BME280;31265;49.680;8.608;2024-01-30T02:50:37;102001.13;;;-0.59;100.00
45541;BME280;31265;49.680;8.608;2024-01-30T02:53:05;101998.97;;;-0.64;100.00
45541;BME280;31265;49.680;8.608;2024-01-30T02:55:33;101994.13;;;-0.60;100.00
45541;BME280;31265;49.680;8.608;2024-01-30T02:58:03;102000.16;;;-0.65;100.00
45541;BME280;31265;49.680;8.608;2024-01-30T03:00:31;101997.69;;;-0.72;100.00
45541;BME280;31265;49.680;8.608;2024-01-30T03:03:00;102007.97;;;-0.76;100.00
45541;BME280;31265;49.680;8.608;2024-01-30T03:05:29;101999.00;;;-0.77;100.00
45541;BME280;31265;49.680;8.608;2024-01-30T03:07:57;101998.06;;;-0.83;100.00
45541;BME280;31265;49.680;8.608;2024-01-30T03:10:25;101992.59;;;-0.83;100.00
45541;BME280;31265;49.680;8.608;2024-01-30T03:12:54;101994.25;;;-0.85;100.00
45541;BME280;31265;49.680;8.608;2024-01-30T03:15:23;101992.28;;;-0.85;100.00
45541;BME280;31265;49.680;8.608;2024-01-30T03:17:53;101999.28;;;-0.84;100.00
45541;BME280;31265;49.680;8.608;2024-01-30T03:20:21;101994.56;;;-0.83;100.00
45541;BME280;31265;49.680;8.608;2024-01-30T03:22:50;101991.19;;;-0.88;100.00
45541;BME280;31265;49.680;8.608;2024-01-30T03:25:18;101995.00;;;-0.85;100.00
45541;BME280;31265;49.680;8.608;2024-01-30T03:27:46;101986.41;;;-0.83;100.00
45541;BME280;31265;49.680;8.608;2024-01-30T03:30:15;101984.75;;;-0.81;100.00
45541;BME280;31265;49.680;8.608;2024-01-30T03:32:44;101990.97;;;-0.80;100.00
45541;BME280;31265;49.680;8.608;2024-01-30T03:35:13;101987.81;;;-0.79;100.00
45541;BME280;31265;49.680;8.608;2024-01-30T03:37:42;101987.34;;;-0.77;100.00
45541;BME280;31265;49.680;8.608;2024-01-30T03:40:11;101984.94;;;-0.75;100.00
45541;BME280;31265;49.680;8.608;2024-01-30T03:42:39;101982.88;;;-0.71;100.00
45541;BME280;31265;49.680;8.608;2024-01-30T03:45:08;101985.28;;;-0.73;100.00
45541;BME280;31265;49.680;8.608;2024-01-30T03:47:37;101992.47;;;-0.79;100.00
45541;BME280;31265;49.680;8.608;2024-01-30T03:50:07;101981.72;;;-0.83;100.00
45541;BME280;31265;49.680;8.608;2024-01-30T03:52:35;101989.56;;;-0.85;100.00
45541;BME280;31265;49.680;8.608;2024-01-30T03:55:04;101985.31;;;-0.86;100.00
45541;BME280;31265;49.680;8.608;2024-01-30T03:57:33;101995.47;;;-0.87;100.00
45541;BME280;31265;49.680;8.608;2024-01-30T04:00:01;101992.41;;;-0.89;100.00
45541;BME280;31265;49.680;8.608;2024-01-30T04:02:38;101996.78;;;-0.91;100.00
45541;BME280;31265;49.680;8.608;2024-01-30T04:05:08;101990.81;;;-0.99;100.00
45541;BME280;31265;49.680;8.608;2024-01-30T04:07:36;101984.72;;;-1.03;100.00
45541;BME280;31265;49.680;8.608;2024-01-30T04:10:06;101988.34;;;-1.06;100.00
45541;BME280;31265;49.680;8.608;2024-01-30T04:12:34;101983.50;;;-1.02;100.00
45541;BME280;31265;49.680;8.608;2024-01-30T04:15:03;101983.50;;;-1.02;100.00
45541;BME280;31265;49.680;8.608;2024-01-30T04:17:31;101976.53;;;-1.03;100.00
45541;BME280;31265;49.680;8.608;2024-01-30T04:20:00;101982.44;;;-1.04;100.00
45541;BME280;31265;49.680;8.608;2024-01-30T04:22:30;101979.50;;;-1.10;100.00
45541;BME280;31265;49.680;8.608;2024-01-30T04:24:58;101987.69;;;-1.10;100.00
45541;BME280;31265;49.680;8.608;2024-01-30T04:27:26;101979.63;;;-1.14;100.00
45541;BME280;31265;49.680;8.608;2024-01-30T04:29:54;101985.09;;;-1.14;100.00
45541;BME280;31265;49.680;8.608;2024-01-30T04:32:23;101988.25;;;-1.15;100.00
45541;BME280;31265;49.680;8.608;2024-01-30T04:34:51;101986.06;;;-1.20;100.00
45541;BME280;31265;49.680;8.608;2024-01-30T04:37:19;101978.66;;;-1.20;100.00
45541;BME280;31265;49.680;8.608;2024-01-30T04:39:49;101984.44;;;-1.18;100.00
45541;BME280;31265;49.680;8.608;2024-01-30T04:42:17;101990.31;;;-1.19;100.00
45541;BME280;31265;49.680;8.608;2024-01-30T04:44:45;101995.88;;;-1.23;100.00
45541;BME280;31265;49.680;8.608;2024-01-30T04:47:14;101990.88;;;-1.24;100.00
45541;BME280;31265;49.680;8.608;2024-01-30T04:49:42;101983.91;;;-1.25;100.00
45541;BME280;31265;49.680;8.608;2024-01-30T04:52:11;101987.81;;;-1.26;100.00
45541;BME280;31265;49.680;8.608;2024-01-30T04:54:39;101982.81;;;-1.28;100.00
45541;BME280;31265;49.680;8.608;2024-01-30T04:57:09;101984.78;;;-1.28;100.00
45541;BME280;31265;49.680;8.608;2024-01-30T04:59:39;101984.13;;;-1.33;100.00
45541;BME280;31265;49.680;8.608;2024-01-30T05:02:07;101998.09;;;-1.31;100.00
45541;BME280;31265;49.680;8.608;2024-01-30T05:04:36;101994.16;;;-1.30;100.00
45541;BME280;31265;49.680;8.608;2024-01-30T05:07:04;101998.72;;;-1.26;100.00
45541;BME280;31265;49.680;8.608;2024-01-30T05:09:32;101994.06;;;-1.26;100.00
45541;BME280;31265;49.680;8.608;2024-01-30T05:12:01;101998.16;;;-1.21;100.00
45541;BME280;31265;49.680;8.608;2024-01-30T05:14:31;102006.22;;;-1.18;100.00
45541;BME280;31265;49.680;8.608;2024-01-30T05:16:59;102004.59;;;-1.15;100.00
45541;BME280;31265;49.680;8.608;2024-01-30T05:19:27;102003.84;;;-1.16;100.00
45541;BME280;31265;49.680;8.608;2024-01-30T05:21:55;102008.53;;;-1.16;100.00
45541;BME280;31265;49.680;8.608;2024-01-30T05:24:24;102009.72;;;-1.17;100.00
45541;BME280;31265;49.680;8.608;2024-01-30T05:26:54;102005.81;;;-1.16;100.00
45541;BME280;31265;49.680;8.608;2024-01-30T05:29:22;102010.78;;;-1.15;100.00
45541;BME280;31265;49.680;8.608;2024-01-30T05:31:52;102010.47;;;-1.17;100.00
45541;BME280;31265;49.680;8.608;2024-01-30T05:34:20;102008.81;;;-1.14;100.00
45541;BME280;31265;49.680;8.608;2024-01-30T05:36:48;102010.69;;;-1.11;100.00
45541;BME280;31265;49.680;8.608;2024-01-30T05:39:17;102009.81;;;-1.08;100.00
45541;BME280;31265;49.680;8.608;2024-01-30T05:41:45;102010.44;;;-1.04;100.00
45541;BME280;31265;49.680;8.608;2024-01-30T05:44:14;102009.25;;;-1.03;100.00
45541;BME280;31265;49.680;8.608;2024-01-30T05:46:42;102012.28;;;-1.01;100.00
45541;BME280;31265;49.680;8.608;2024-01-30T05:49:12;102012.19;;;-1.10;100.00
45541;BME280;31265;49.680;8.608;2024-01-30T05:51:40;102012.00;;;-1.16;100.00
45541;BME280;31265;49.680;8.608;2024-01-30T05:54:08;102005.34;;;-1.15;100.00
45541;BME280;31265;49.680;8.608;2024-01-30T05:56:39;102006.63;;;-1.06;100.00
45541;BME280;31265;49.680;8.608;2024-01-30T05:59:07;102001.50;;;-1.04;100.00
45541;BME280;31265;49.680;8.608;2024-01-30T06:01:36;102001.06;;;-1.03;100.00
45541;BME280;31265;49.680;8.608;2024-01-30T06:04:04;102007.59;;;-1.00;100.00
45541;BME280;31265;49.680;8.608;2024-01-30T06:06:34;102004.00;;;-0.97;100.00
45541;BME280;31265;49.680;8.608;2024-01-30T06:09:02;102005.97;;;-0.98;100.00
45541;BME280;31265;49.680;8.608;2024-01-30T06:11:30;102012.63;;;-0.99;100.00
45541;BME280;31265;49.680;8.608;2024-01-30T06:13:58;102012.63;;;-0.99;100.00
45541;BME280;31265;49.680;8.608;2024-01-30T06:16:27;102012.06;;;-0.94;100.00
45541;BME280;31265;49.680;8.608;2024-01-30T06:18:56;102015.31;;;-0.86;100.00
45541;BME280;31265;49.680;8.608;2024-01-30T06:21:26;102007.13;;;-0.86;100.00
45541;BME280;31265;49.680;8.608;2024-01-30T06:23:56;102007.06;;;-0.73;100.00
45541;BME280;31265;49.680;8.608;2024-01-30T06:26:24;102019.38;;;-0.69;100.00
45541;BME280;31265;49.680;8.608;2024-01-30T06:28:52;102013.94;;;-0.69;100.00
45541;BME280;31265;49.680;8.608;2024-01-30T06:31:21;102017.59;;;-0.62;100.00
45541;BME280;31265;49.680;8.608;2024-01-30T06:33:49;102009.25;;;-0.68;100.00
45541;BME280;31265;49.680;8.608;2024-01-30T06:36:18;102002.56;;;-0.67;100.00
45541;BME280;31265;49.680;8.608;2024-01-30T06:38:46;102000.63;;;-0.67;100.00
45541;BME280;31265;49.680;8.608;2024-01-30T06:41:15;102009.88;;;-0.64;100.00
45541;BME280;31265;49.680;8.608;2024-01-30T06:43:44;102012.47;;;-0.60;100.00
45541;BME280;31265;49.680;8.608;2024-01-30T06:46:13;102009.50;;;-0.53;100.00
45541;BME280;31265;49.680;8.608;2024-01-30T06:48:41;102011.41;;;-0.41;100.00
45541;BME280;31265;49.680;8.608;2024-01-30T06:51:11;102016.72;;;-0.37;100.00
45541;BME280;31265;49.680;8.608;2024-01-30T06:53:44;102010.06;;;-0.36;100.00
45541;BME280;31265;49.680;8.608;2024-01-30T06:56:12;102013.13;;;-0.34;100.00
45541;BME280;31265;49.680;8.608;2024-01-30T06:58:42;102013.63;;;-0.27;100.00
45541;BME280;31265;49.680;8.608;2024-01-30T07:01:10;102012.47;;;-0.16;100.00
45541;BME280;31265;49.680;8.608;2024-01-30T07:03:39;102013.84;;;-0.12;100.00
45541;BME280;31265;49.680;8.608;2024-01-30T07:06:07;102012.69;;;-0.02;100.00
45541;BME280;31265;49.680;8.608;2024-01-30T07:08:35;102015.03;;;0.09;100.00
45541;BME280;31265;49.680;8.608;2024-01-30T07:11:04;102018.72;;;0.25;100.00
45541;BME280;31265;49.680;8.608;2024-01-30T07:13:33;102016.50;;;0.32;100.00
45541;BME280;31265;49.680;8.608;2024-01-30T07:16:04;102016.06;;;0.43;100.00
45541;BME280;31265;49.680;8.608;2024-01-30T07:18:32;102015.03;;;0.50;100.00
45541;BME280;31265;49.680;8.608;2024-01-30T07:21:01;102016.91;;;0.62;100.00
45541;BME280;31265;49.680;8.608;2024-01-30T07:23:29;102015.56;;;0.76;100.00
45541;BME280;31265;49.680;8.608;2024-01-30T07:25:57;102014.50;;;0.82;100.00
45541;BME280;31265;49.680;8.608;2024-01-30T07:28:26;102013.75;;;0.82;100.00
45541;BME280;31265;49.680;8.608;2024-01-30T07:30:54;102015.69;;;0.81;100.00
45541;BME280;31265;49.680;8.608;2024-01-30T07:33:24;102011.31;;;0.84;100.00
45541;BME280;31265;49.680;8.608;2024-01-30T07:35:52;102015.25;;;0.83;100.00
45541;BME280;31265;49.680;8.608;2024-01-30T07:38:21;102004.78;;;0.91;100.00
45541;BME280;31265;49.680;8.608;2024-01-30T07:40:49;102019.38;;;0.88;100.00
45541;BME280;31265;49.680;8.608;2024-01-30T07:43:18;102019.69;;;0.90;100.00
45541;BME280;31265;49.680;8.608;2024-01-30T07:45:47;102022.56;;;0.95;100.00
45541;BME280;31265;49.680;8.608;2024-01-30T07:48:15;102025.31;;;1.04;100.00
45541;BME280;31265;49.680;8.608;2024-01-30T07:50:45;102023.97;;;1.27;100.00
45541;BME280;31265;49.680;8.608;2024-01-30T07:53:13;102023.50;;;1.47;100.00
45541;BME280;31265;49.680;8.608;2024-01-30T07:55:42;102038.38;;;1.65;100.00
45541;BME280;31265;49.680;8.608;2024-01-30T07:58:13;102038.19;;;1.87;100.00
45541;BME280;31265;49.680;8.608;2024-01-30T08:00:42;102040.41;;;2.07;100.00
45541;BME280;31265;49.680;8.608;2024-01-30T08:03:10;102044.94;;;2.19;100.00
45541;BME280;31265;49.680;8.608;2024-01-30T08:05:39;102046.13;;;2.27;100.00
45541;BME280;31265;49.680;8.608;2024-01-30T08:08:09;102047.63;;;2.38;100.00
45541;BME280;31265;49.680;8.608;2024-01-30T08:10:37;102054.59;;;2.48;100.00
45541;BME280;31265;49.680;8.608;2024-01-30T08:13:06;102053.44;;;2.64;100.00
45541;BME280;31265;49.680;8.608;2024-01-30T08:15:36;102059.81;;;2.70;100.00
45541;BME280;31265;49.680;8.608;2024-01-30T08:18:04;102059.91;;;2.85;100.00
45541;BME280;31265;49.680;8.608;2024-01-30T08:20:34;102057.06;;;2.94;100.00
45541;BME280;31265;49.680;8.608;2024-01-30T08:23:03;102056.91;;;2.97;100.00
45541;BME280;31265;49.680;8.608;2024-01-30T08:25:33;102059.72;;;3.12;100.00
45541;BME280;31265;49.680;8.608;2024-01-30T08:28:01;102070.16;;;3.23;100.00
45541;BME280;31265;49.680;8.608;2024-01-30T08:30:29;102064.88;;;3.34;100.00
45541;BME280;31265;49.680;8.608;2024-01-30T08:32:58;102063.00;;;3.40;100.00
45541;BME280;31265;49.680;8.608;2024-01-30T08:35:27;102064.72;;;3.53;100.00
45541;BME280;31265;49.680;8.608;2024-01-30T08:37:55;102057.47;;;3.64;100.00
45541;BME280;31265;49.680;8.608;2024-01-30T08:40:23;102055.69;;;3.76;100.00
45541;BME280;31265;49.680;8.608;2024-01-30T08:42:53;102060.69;;;3.93;100.00
45541;BME280;31265;49.680;8.608;2024-01-30T08:45:21;102050.06;;;4.00;100.00
45541;BME280;31265;49.680;8.608;2024-01-30T08:47:49;102053.03;;;4.12;100.00
45541;BME280;31265;49.680;8.608;2024-01-30T08:50:18;102051.59;;;4.31;100.00
45541;BME280;31265;49.680;8.608;2024-01-30T08:52:47;102039.03;;;4.45;100.00
45541;BME280;31265;49.680;8.608;2024-01-30T08:55:16;102048.56;;;4.64;100.00
45541;BME280;31265;49.680;8.608;2024-01-30T08:57:45;102044.88;;;4.67;100.00
45541;BME280;31265;49.680;8.608;2024-01-30T09:00:16;102046.25;;;4.78;100.00
45541;BME280;31265;49.680;8.608;2024-01-30T09:02:44;102040.53;;;4.81;100.00
45541;BME280;31265;49.680;8.608;2024-01-30T09:05:12;102031.66;;;4.92;100.00
45541;BME280;31265;49.680;8.608;2024-01-30T09:07:41;102041.22;;;4.96;100.00
45541;BME280;31265;49.680;8.608;2024-01-30T09:10:10;102037.59;;;5.05;100.00
45541;BME280;31265;49.680;8.608;2024-01-30T09:12:41;102040.56;;;5.22;100.00
45541;BME280;31265;49.680;8.608;2024-01-30T09:15:10;102046.59;;;5.26;100.00
45541;BME280;31265;49.680;8.608;2024-01-30T09:17:39;102047.13;;;5.30;100.00
45541;BME280;31265;49.680;8.608;2024-01-30T09:20:08;102048.72;;;5.37;100.00
45541;BME280;31265;49.680;8.608;2024-01-30T09:22:37;102045.03;;;5.46;100.00
45541;BME280;31265;49.680;8.608;2024-01-30T09:25:06;102049.44;;;5.58;100.00
45541;BME280;31265;49.680;8.608;2024-01-30T09:27:34;102053.06;;;5.70;100.00
45541;BME280;31265;49.680;8.608;2024-01-30T09:30:04;102048.56;;;5.72;100.00
45541;BME280;31265;49.680;8.608;2024-01-30T09:32:32;102050.50;;;5.92;100.00
45541;BME280;31265;49.680;8.608;2024-01-30T09:35:02;102044.03;;;5.95;100.00
45541;BME280;31265;49.680;8.608;2024-01-30T09:37:30;102056.16;;;6.03;100.00
45541;BME280;31265;49.680;8.608;2024-01-30T09:39:59;102049.53;;;6.21;100.00
45541;BME280;31265;49.680;8.608;2024-01-30T09:42:33;102049.81;;;6.29;100.00
45541;BME280;31265;49.680;8.608;2024-01-30T09:45:02;102055.94;;;6.44;100.00
45541;BME280;31265;49.680;8.608;2024-01-30T09:47:32;102060.03;;;6.55;100.00
45541;BME280;31265;49.680;8.608;2024-01-30T09:50:02;102056.50;;;6.54;100.00
45541;BME280;31265;49.680;8.608;2024-01-30T09:52:33;102054.03;;;6.62;100.00
45541;BME280;31265;49.680;8.608;2024-01-30T09:55:01;102057.88;;;6.70;100.00
45541;BME280;31265;49.680;8.608;2024-01-30T09:57:30;102054.69;;;6.88;100.00
45541;BME280;31265;49.680;8.608;2024-01-30T09:59:58;102059.25;;;6.97;100.00
45541;BME280;31265;49.680;8.608;2024-01-30T10:02:27;102057.53;;;7.05;100.00
45541;BME280;31265;49.680;8.608;2024-01-30T10:04:55;102063.09;;;7.17;100.00
45541;BME280;31265;49.680;8.608;2024-01-30T10:07:26;102053.31;;;7.21;100.00
45541;BME280;31265;49.680;8.608;2024-01-30T10:09:55;102054.34;;;7.24;100.00
45541;BME280;31265;49.680;8.608;2024-01-30T10:12:25;102050.56;;;7.27;100.00
45541;BME280;31265;49.680;8.608;2024-01-30T10:14:56;102057.16;;;7.41;100.00
45541;BME280;31265;49.680;8.608;2024-01-30T10:17:25;102058.91;;;7.44;100.00
45541;BME280;31265;49.680;8.608;2024-01-30T10:20:00;102063.72;;;7.66;100.00
45541;BME280;31265;49.680;8.608;2024-01-30T10:22:33;102066.50;;;7.71;100.00
45541;BME280;31265;49.680;8.608;2024-01-30T10:25:02;102057.94;;;7.58;100.00
45541;BME280;31265;49.680;8.608;2024-01-30T10:27:32;102055.22;;;7.81;100.00
45541;BME280;31265;49.680;8.608;2024-01-30T10:30:01;102051.72;;;8.03;100.00
45541;BME280;31265;49.680;8.608;2024-01-30T10:32:31;102054.72;;;7.93;100.00
45541;BME280;31265;49.680;8.608;2024-01-30T10:34:59;102057.00;;;7.95;100.00
45541;BME280;31265;49.680;8.608;2024-01-30T10:37:30;102049.19;;;7.82;100.00
45541;BME280;31265;49.680;8.608;2024-01-30T10:40:03;102048.69;;;8.01;100.00
45541;BME280;31265;49.680;8.608;2024-01-30T10:42:35;102045.94;;;8.06;100.00
45541;BME280;31265;49.680;8.608;2024-01-30T10:45:06;102040.66;;;7.97;100.00
45541;BME280;31265;49.680;8.608;2024-01-30T10:47:36;102055.97;;;7.98;100.00
45541;BME280;31265;49.680;8.608;2024-01-30T10:50:05;102051.97;;;8.16;100.00
45541;BME280;31265;49.680;8.608;2024-01-30T10:52:36;102049.19;;;8.22;100.00
45541;BME280;31265;49.680;8.608;2024-01-30T10:55:07;102057.00;;;8.17;100.00
45541;BME280;31265;49.680;8.608;2024-01-30T10:57:36;102053.97;;;8.15;100.00
45541;BME280;31265;49.680;8.608;2024-01-30T11:00:07;102058.00;;;8.09;100.00
45541;BME280;31265;49.680;8.608;2024-01-30T11:02:40;102047.44;;;8.18;100.00
45541;BME280;31265;49.680;8.608;2024-01-30T11:05:08;102038.91;;;8.16;100.00
45541;BME280;31265;49.680;8.608;2024-01-30T11:07:39;102044.41;;;8.11;100.00
45541;BME280;31265;49.680;8.608;2024-01-30T11:10:09;102031.88;;;8.04;100.00
45541;BME280;31265;49.680;8.608;2024-01-30T11:12:40;102043.16;;;8.23;100.00
45541;BME280;31265;49.680;8.608;2024-01-30T11:15:12;102042.66;;;8.19;100.00
45541;BME280;31265;49.680;8.608;2024-01-30T11:17:49;102046.94;;;8.20;100.00
45541;BME280;31265;49.680;8.608;2024-01-30T11:20:20;102043.91;;;8.46;100.00
45541;BME280;31265;49.680;8.608;2024-01-30T11:22:51;102057.44;;;8.67;100.00
45541;BME280;31265;49.680;8.608;2024-01-30T11:25:22;102049.16;;;8.61;100.00
45541;BME280;31265;49.680;8.608;2024-01-30T11:27:52;102055.19;;;8.71;100.00
45541;BME280;31265;49.680;8.608;2024-01-30T11:30:22;102044.13;;;8.71;100.00
45541;BME280;31265;49.680;8.608;2024-01-30T11:33:01;102053.72;;;8.47;100.00
45541;BME280;31265;49.680;8.608;2024-01-30T11:35:32;102040.13;;;8.55;100.00
45541;BME280;31265;49.680;8.608;2024-01-30T11:38:02;102030.81;;;8.64;100.00
45541;BME280;31265;49.680;8.608;2024-01-30T11:40:33;102033.28;;;8.73;100.00
45541;BME280;31265;49.680;8.608;2024-01-30T11:43:04;102044.38;;;8.67;100.00
45541;BME280;31265;49.680;8.608;2024-01-30T11:45:33;102038.09;;;8.67;100.00
45541;BME280;31265;49.680;8.608;2024-01-30T11:48:02;102041.13;;;8.57;100.00
45541;BME280;31265;49.680;8.608;2024-01-30T11:50:33;102024.03;;;8.53;100.00
45541;BME280;31265;49.680;8.608;2024-01-30T11:53:02;102012.19;;;8.58;100.00
45541;BME280;31265;49.680;8.608;2024-01-30T11:55:30;102010.69;;;8.57;100.00
45541;BME280;31265;49.680;8.608;2024-01-30T11:58:03;102007.13;;;8.74;100.00
45541;BME280;31265;49.680;8.608;2024-01-30T12:00:32;102003.84;;;8.70;100.00
45541;BME280;31265;49.680;8.608;2024-01-30T12:03:03;101996.84;;;8.63;100.00
45541;BME280;31265;49.680;8.608;2024-01-30T12:05:33;101985.22;;;8.70;100.00
45541;BME280;31265;49.680;8.608;2024-01-30T12:08:03;101993.00;;;8.83;100.00
45541;BME280;31265;49.680;8.608;2024-01-30T12:10:31;101988.94;;;8.90;100.00
45541;BME280;31265;49.680;8.608;2024-01-30T12:13:02;101979.88;;;8.89;100.00
45541;BME280;31265;49.680;8.608;2024-01-30T12:15:31;101984.38;;;8.92;100.00
45541;BME280;31265;49.680;8.608;2024-01-30T12:18:06;101985.63;;;8.97;100.00
45541;BME280;31265;49.680;8.608;2024-01-30T12:20:35;101989.13;;;9.03;100.00
45541;BME280;31265;49.680;8.608;2024-01-30T12:23:04;101988.91;;;8.95;100.00
45541;BME280;31265;49.680;8.608;2024-01-30T12:25:32;101983.66;;;8.86;100.00
45541;BME280;31265;49.680;8.608;2024-01-30T12:28:03;101985.38;;;9.00;100.00
45541;BME280;31265;49.680;8.608;2024-01-30T12:30:34;101983.31;;;9.07;100.00
45541;BME280;31265;49.680;8.608;2024-01-30T12:33:03;101988.34;;;9.02;100.00
45541;BME280;31265;49.680;8.608;2024-01-30T12:35:34;101995.47;;;8.92;100.00
45541;BME280;31265;49.680;8.608;2024-01-30T12:38:08;101992.19;;;8.94;100.00
45541;BME280;31265;49.680;8.608;2024-01-30T12:40:36;101999.88;;;9.12;100.00
45541;BME280;31265;49.680;8.608;2024-01-30T12:43:09;101999.38;;;9.14;100.00
45541;BME280;31265;49.680;8.608;2024-01-30T12:45:37;101992.56;;;9.15;100.00
45541;BME280;31265;49.680;8.608;2024-01-30T12:48:06;101994.59;;;9.14;100.00
45541;BME280;31265;49.680;8.608;2024-01-30T12:50:35;101994.63;;;9.09;100.00
45541;BME280;31265;49.680;8.608;2024-01-30T12:53:04;101986.81;;;9.13;100.00
45541;BME280;31265;49.680;8.608;2024-01-30T12:55:33;101986.97;;;9.26;100.00